Aeroporto :
LOGIN :

Iscrizione | Disclaimer

   EN    FR    IT 

 










Sommario :    VFR   VFR Marginale   IFR   IFR Intensivo   IFR Molto Intensivo
Visibilità : 
Base nubi : 
>= 8 km
>= 3000ft
5 / 8 km
1000 / 3000 ft
1500m / 5 km
500 / 1000 ft
800 / 1500m
200 / 500 ft
< 800m
< 200 ft
Simboli :   Temporali  Nebbia  Neve Forte  Precipitazioni Forti  Vento > 20 kt
SIGMETs :   Varie  Temporali  Ghiacco  Turbolenza  Onda orograficha  Ceneri Vulcaniche






- Altitudine del aeroporto : 72 ft
- Codice IATA : UDE


EHVK - Volkel Airbase

ULTIMO METAR :
  • 291137Z AUTO 26010KT 230V290 9999 SCT017 BKN023 BKN031 06/03 Q1006 WHT

METARs OBSOLETI :
  • 291136Z AUTO 26012G22KT 240V310 9999 FEW018 SCT022 BKN026 06/03 Q1006 WHT
  • 291055Z AUTO 25013KT 220V300 9999 SCT018 BKN021 OVC026 06/03 Q1006 WHT
  • 291025Z AUTO 24013KT 9999 SCT016 BKN019 OVC023 06/03 Q1006 WHT
  • 290955Z AUTO 24014KT 210V270 9999 -RA BKN015 BKN019 OVC022 05/03 Q1005 WHT
  • 290925Z AUTO 23014KT 9999 SCT015 OVC018 04/03 Q1005 REDZ WHT
  • 290859Z AUTO 24015KT 9999 -RA FEW012 BKN014 OVC016 04/02 Q1005 GRN
  • 290855Z AUTO 23015KT 9999 FEW013 BKN016 OVC020 04/02 Q1004 WHT

TAF TAF EHVK
Valido dal 29 a 10 ore il 29 a 22 ore UTC


290902Z 2910/2922 23015KT 9999 SCT020 BKN035
TEMPO 2910/2913 SCT018CB



MetMap, La meteo Aeronautica in un colpo d'occhio ! - Copyright ORBIFLY Dicembre 2007 - Disclaimer

ORBIFLY MET'MAP TEAM :

Programmazione e sviluppo : Alexandra Zaïnal
Concezione : Baudouin d'Aumeries
Aiuto per la programmazione : Marc-Olivier Méhu
Supporto tecnico e logistico : Manuel Goepfert
Aiuto per la traduzione : Arnaldo La Scala

Contatto : metmap@orbifly.com




FONTI E CREDITI :

   NOAA